createdAt,value
2019-05-07T00:01:02.930Z,49.74
2019-05-07T00:06:05.158Z,50.12
2019-05-07T00:11:07.232Z,50.29
2019-05-07T00:16:09.267Z,50.46
2019-05-07T00:21:12.627Z,50.68
2019-05-07T00:26:14.998Z,50.63
2019-05-07T00:31:17.077Z,50.87
2019-05-07T00:36:52.498Z,50.62
2019-05-07T00:42:03.002Z,50.29
2019-05-07T00:47:04.788Z,49.95
2019-05-07T00:52:06.843Z,49.52
2019-05-07T00:57:08.911Z,49.19
2019-05-07T01:02:12.799Z,48.88
2019-05-07T01:07:15.019Z,48.72
2019-05-07T01:12:17.098Z,48.53
2019-05-07T01:17:19.128Z,48.04
2019-05-07T01:22:22.243Z,47.92
2019-05-07T01:27:24.589Z,47.89
2019-05-07T01:32:35.868Z,47.66
2019-05-07T01:37:37.970Z,47.59
2019-05-07T01:42:42.167Z,47.64
2019-05-07T01:47:44.003Z,47.58
2019-05-07T01:52:47.853Z,47.37
2019-05-07T01:57:52.129Z,47.50
2019-05-07T02:02:59.756Z,47.49
2019-05-07T02:08:04.425Z,47.74
2019-05-07T02:13:06.507Z,47.85
2019-05-07T02:18:08.666Z,47.86
2019-05-07T02:23:12.754Z,48.08
2019-05-07T02:28:14.836Z,48.13
2019-05-07T02:33:16.934Z,48.28
2019-05-07T02:38:29.889Z,48.52
2019-05-07T02:43:33.732Z,48.60
2019-05-07T02:48:43.358Z,48.72
2019-05-07T02:53:57.447Z,48.69
2019-05-07T02:58:59.518Z,48.85
2019-05-07T03:04:03.631Z,49.07
2019-05-07T03:09:06.155Z,49.18
2019-05-07T03:14:08.429Z,49.28
2019-05-07T03:19:13.322Z,49.52
2019-05-07T03:24:23.052Z,49.62
2019-05-07T03:29:25.743Z,49.68
2019-05-07T03:34:46.424Z,49.84
2019-05-07T03:39:47.643Z,49.76
2019-05-07T03:45:09.349Z,49.78
2019-05-07T03:50:14.637Z,50.08
2019-05-07T03:55:17.083Z,50.21
2019-05-07T04:00:19.160Z,50.23
2019-05-07T04:05:23.131Z,50.13
2019-05-07T04:10:25.272Z,50.27
2019-05-07T04:15:27.346Z,50.19
2019-05-07T04:20:29.408Z,50.32
2019-05-07T04:25:56.875Z,50.32
2019-05-07T04:31:02.835Z,50.49
2019-05-07T04:36:18.688Z,50.53
2019-05-07T04:41:23.590Z,50.88
2019-05-07T04:46:26.042Z,50.90
2019-05-07T04:51:37.785Z,50.69
2019-05-07T04:56:39.849Z,50.91
2019-05-07T05:01:47.670Z,50.67
2019-05-07T05:06:49.817Z,50.91
2019-05-07T05:11:53.103Z,50.98
2019-05-07T05:16:55.442Z,50.81
2019-05-07T05:22:07.647Z,50.73
2019-05-07T05:27:12.099Z,50.78
2019-05-07T05:32:13.753Z,50.46
2019-05-07T05:37:15.875Z,50.54
2019-05-07T05:42:28.281Z,50.45
2019-05-07T05:47:30.401Z,50.31
2019-05-07T05:52:39.411Z,50.32
2019-05-07T05:57:58.424Z,50.44
2019-05-07T06:03:34.329Z,50.84
2019-05-07T06:08:55.371Z,50.29
2019-05-07T06:14:15.623Z,50.83
2019-05-07T06:19:23.234Z,51.70
2019-05-07T06:24:40.053Z,53.17
2019-05-07T06:29:42.681Z,54.00
2019-05-07T06:34:45.147Z,55.02
2019-05-07T06:39:55.514Z,55.44
2019-05-07T06:45:05.606Z,55.62
2019-05-07T06:50:07.692Z,56.13
2019-05-07T06:55:12.072Z,56.50
2019-05-07T07:00:37.034Z,56.71
2019-05-07T07:06:02.747Z,56.78
2019-05-07T07:11:15.384Z,56.95
2019-05-07T07:16:19.553Z,56.97
2019-05-07T07:21:22.054Z,56.90
2019-05-07T07:26:24.148Z,56.85
2019-05-07T07:31:33.465Z,57.00
2019-05-07T07:37:05.450Z,57.25
2019-05-07T07:42:02.927Z,56.97
2019-05-07T07:47:05.012Z,56.08
2019-05-07T07:52:07.068Z,56.14
2019-05-07T07:57:32.423Z,56.47
2019-05-07T08:03:03.057Z,55.49
2019-05-07T08:08:05.241Z,55.11
2019-05-07T08:13:07.280Z,54.85
2019-05-07T08:18:11.843Z,54.37
2019-05-07T08:23:13.447Z,54.28
2019-05-07T08:28:16.850Z,54.38
2019-05-07T08:33:23.582Z,53.76
2019-05-07T08:38:25.613Z,54.39
2019-05-07T08:43:27.671Z,53.68
2019-05-07T08:48:37.884Z,53.09
2019-05-07T08:53:42.191Z,53.00
2019-05-07T08:58:43.894Z,51.85
2019-05-07T09:03:45.922Z,51.47
2019-05-07T09:08:47.995Z,50.68
2019-05-07T09:13:50.075Z,50.50
2019-05-07T09:18:54.221Z,50.22
2019-05-07T09:23:56.265Z,48.81
2019-05-07T09:29:05.167Z,47.28
2019-05-07T09:34:07.270Z,47.36
2019-05-07T09:39:09.423Z,46.39
2019-05-07T09:44:11.977Z,46.23
2019-05-07T09:49:14.231Z,46.37
2019-05-07T09:54:16.309Z,46.73
2019-05-07T09:59:18.398Z,45.97
2019-05-07T10:04:22.405Z,44.58
2019-05-07T10:09:24.600Z,43.67
2019-05-07T10:14:26.698Z,43.65
2019-05-07T10:19:29.276Z,42.64
2019-05-07T10:24:31.625Z,43.12
2019-05-07T10:29:33.706Z,42.86
2019-05-07T10:34:35.813Z,43.44
2019-05-07T10:39:37.843Z,43.92
2019-05-07T10:44:46.252Z,43.23
2019-05-07T10:49:55.937Z,42.90
2019-05-07T10:55:00.014Z,42.83
2019-05-07T11:00:03.224Z,42.04
2019-05-07T11:05:05.842Z,42.09
2019-05-07T11:10:12.193Z,40.72
2019-05-07T11:15:15.031Z,40.83
2019-05-07T11:20:17.817Z,41.58
2019-05-07T11:25:19.934Z,42.32
2019-05-07T11:30:22.909Z,41.44
2019-05-07T11:35:25.140Z,40.51
2019-05-07T11:40:27.201Z,39.81
2019-05-07T11:45:35.024Z,39.08
2019-05-07T11:51:00.426Z,38.84
2019-05-07T11:55:53.777Z,38.46
2019-05-07T12:01:03.960Z,37.34
2019-05-07T12:06:06.382Z,36.88
2019-05-07T12:11:08.472Z,36.46
2019-05-07T12:16:13.953Z,36.81
2019-05-07T12:21:20.721Z,36.50
2019-05-07T12:26:18.540Z,36.38
2019-05-07T12:31:39.109Z,36.49
2019-05-07T12:36:41.534Z,36.87
2019-05-07T12:41:43.577Z,37.02
2019-05-07T12:46:45.948Z,36.94
2019-05-07T12:52:16.291Z,37.49
2019-05-07T12:57:18.353Z,37.60
2019-05-07T13:02:42.063Z,37.78
2019-05-07T13:07:52.979Z,38.49
2019-05-07T13:12:55.067Z,39.28
2019-05-07T13:17:57.176Z,39.04
2019-05-07T13:22:59.633Z,39.42
2019-05-07T13:28:02.619Z,38.66
2019-05-07T13:33:05.130Z,38.17
2019-05-07T13:38:25.740Z,38.33
2019-05-07T13:43:32.449Z,37.20
2019-05-07T13:48:35.793Z,38.03
2019-05-07T13:53:37.811Z,38.33
2019-05-07T13:58:39.869Z,37.45
2019-05-07T14:03:42.025Z,36.81
2019-05-07T14:08:44.525Z,36.96
2019-05-07T14:13:47.092Z,37.29
2019-05-07T14:18:49.335Z,37.25
2019-05-07T14:23:52.129Z,36.10
2019-05-07T14:28:54.424Z,36.26
2019-05-07T14:34:05.133Z,36.07
2019-05-07T14:39:07.996Z,35.67
2019-05-07T14:44:13.023Z,36.23
2019-05-07T14:49:15.167Z,36.04
2019-05-07T14:54:18.364Z,36.16
2019-05-07T14:59:20.569Z,36.63
2019-05-07T15:04:22.638Z,36.13
2019-05-07T15:09:24.712Z,37.32
2019-05-07T15:14:26.847Z,38.08
2019-05-07T15:19:28.939Z,38.78
2019-05-07T15:24:32.693Z,39.09
2019-05-07T15:29:34.904Z,39.52
2019-05-07T15:34:37.182Z,40.28
2019-05-07T15:39:39.439Z,40.82
2019-05-07T15:44:43.175Z,40.68
2019-05-07T15:49:45.560Z,41.71
2019-05-07T15:54:47.618Z,41.54
2019-05-07T15:59:52.410Z,41.85
2019-05-07T16:04:54.664Z,41.11
2019-05-07T16:09:58.544Z,40.87
2019-05-07T16:15:02.991Z,40.75
2019-05-07T16:20:05.241Z,41.34
2019-05-07T16:25:07.583Z,40.54
2019-05-07T16:30:13.988Z,39.54
2019-05-07T16:35:16.261Z,39.48
2019-05-07T16:40:19.847Z,39.47
2019-05-07T16:45:22.275Z,39.02
2019-05-07T16:50:24.304Z,38.74
2019-05-07T16:55:36.613Z,38.80
2019-05-07T17:00:52.285Z,39.53
2019-05-07T17:05:54.502Z,39.13
2019-05-07T17:10:56.581Z,39.70
2019-05-07T17:16:00.151Z,39.11
2019-05-07T17:21:02.397Z,38.93
2019-05-07T17:26:05.048Z,38.89
2019-05-07T17:31:07.306Z,39.17
2019-05-07T17:36:12.035Z,39.28
2019-05-07T17:41:22.219Z,39.68
2019-05-07T17:46:23.056Z,40.09
2019-05-07T17:51:44.787Z,39.51
2019-05-07T17:56:46.914Z,39.83
2019-05-07T18:02:01.932Z,39.73
2019-05-07T18:07:07.080Z,39.80
2019-05-07T18:12:09.302Z,39.69
2019-05-07T18:17:33.505Z,39.60
2019-05-07T18:22:35.587Z,39.76
2019-05-07T18:27:42.061Z,40.07
2019-05-07T18:32:49.343Z,39.97
2019-05-07T18:37:53.620Z,40.06
2019-05-07T18:42:55.664Z,40.08
2019-05-07T18:47:57.786Z,40.16
2019-05-07T18:53:02.854Z,40.22
2019-05-07T18:58:05.161Z,40.16
2019-05-07T19:03:07.404Z,40.38
2019-05-07T19:08:09.471Z,40.42
2019-05-07T19:13:13.664Z,40.75
2019-05-07T19:18:17.654Z,40.94
2019-05-07T19:23:22.106Z,41.16
2019-05-07T19:28:25.330Z,41.57
2019-05-07T19:33:36.864Z,41.87
2019-05-07T19:38:44.167Z,41.94
2019-05-07T19:43:48.055Z,42.33
2019-05-07T19:48:52.067Z,42.52
2019-05-07T19:53:54.083Z,42.87
2019-05-07T19:58:56.153Z,43.12
2019-05-07T20:03:58.257Z,43.42
2019-05-07T20:09:11.467Z,43.88
2019-05-07T20:14:04.649Z,44.33
2019-05-07T20:19:06.801Z,44.58
2019-05-07T20:24:08.893Z,44.72
2019-05-07T20:29:12.314Z,44.81
2019-05-07T20:34:14.793Z,44.95
2019-05-07T20:39:16.848Z,45.01
2019-05-07T20:44:18.953Z,45.35
2019-05-07T20:49:22.499Z,45.62
2019-05-07T20:54:47.387Z,45.89
2019-05-07T20:59:49.569Z,46.08
2019-05-07T21:04:51.966Z,46.12
2019-05-07T21:09:54.095Z,46.66
2019-05-07T21:14:56.331Z,46.91
2019-05-07T21:19:58.503Z,46.98
2019-05-07T21:25:02.662Z,47.40
2019-05-07T21:30:05.267Z,47.33
2019-05-07T21:35:07.367Z,47.93
2019-05-07T21:40:09.494Z,48.21
2019-05-07T21:45:11.550Z,48.24
2019-05-07T21:50:13.729Z,48.35
2019-05-07T21:55:35.433Z,48.36
2019-05-07T22:00:48.054Z,48.59
2019-05-07T22:05:51.743Z,48.63
2019-05-07T22:10:54.061Z,48.42
2019-05-07T22:15:56.119Z,48.47
2019-05-07T22:20:59.481Z,48.31
2019-05-07T22:26:18.448Z,48.46
2019-05-07T22:31:20.185Z,48.50
2019-05-07T22:36:23.566Z,48.33
2019-05-07T22:41:25.964Z,48.43
2019-05-07T22:46:28.057Z,48.55
2019-05-07T22:51:30.170Z,48.57
2019-05-07T22:56:54.657Z,48.71
2019-05-07T23:01:56.725Z,48.76
2019-05-07T23:06:58.798Z,48.79
2019-05-07T23:12:02.211Z,48.81
2019-05-07T23:17:04.486Z,48.92
2019-05-07T23:22:06.531Z,49.10
2019-05-07T23:27:08.636Z,49.13
2019-05-07T23:32:12.659Z,49.38
2019-05-07T23:37:14.961Z,49.39
2019-05-07T23:42:21.309Z,49.60
2019-05-07T23:47:23.398Z,49.83
2019-05-07T23:52:25.566Z,49.96
2019-05-07T23:57:27.663Z,50.16
